Flight Track Log - Related Links

Times and Time Zones

All times are in EDT time to prevent confusion due to time zone crossing. See the UAL3776 flight status page for this flight to view local times or setup timezone preferences in your user account.

Time Position Orientation Groundspeed Altitude Reporting Facility
EDT Latitude Longitude Course Direction KTS MPH feet Rate Location/Type
Sun 03:41:27 PM 38.9333 -77.5500 201° Southwest 200 230 3,200  Level Potomac TRACON
Sun 03:42:27 PM 38.8667 -77.5667 191° South 240 276 5,600 2,750 Climbing Potomac TRACON
Sun 03:43:27 PM 38.8000 -77.5667 180° South 243 280 8,700 2,678 Climbing Potomac TRACON
Sun 03:44:00 PM 38.5126 -77.6552 185° South  Level Estimated
Sun 03:44:28 PM 38.7333 -77.5667 180° South 270 311 11,000  Level Potomac TRACON
Sun 03:45:00 PM 38.4038 -77.7036 218° Southwest  Level Estimated
Sun 03:45:28 PM 38.6667 -77.5167 150° Southeast 313 360 13,300  Level Potomac TRACON
Sun 03:46:00 PM 38.2950 -77.7519 201° Southwest  Level Estimated
Sun 03:46:26 PM 38.6072 -77.4486 138° Southeast 329 379 14,900  Level Washington Center
Sun 03:47:26 PM 38.5394 -77.3753 140° Southeast 329 379 15,800 1,271 Climbing Washington Center
Sun 03:48:24 PM 38.4678 -77.4239 208° Southwest 264 304 17,400 1,322 Climbing Washington Center
Sun 03:49:24 PM 38.4203 -77.5261 239° Southwest 267 307 18,400 1,289 Climbing Washington Center
Sun 03:50:25 PM 38.3503 -77.6092 223° Southwest 305 351 20,000 1,587 Climbing Washington Center
Sun 03:51:25 PM 38.2656 -77.6808 214° Southwest 344 396 21,600 992 Climbing Washington Center
Sun 03:52:26 PM 38.1808 -77.7553 215° Southwest 362 417 22,000 198 Climbing Washington Center
Sun 03:53:26 PM 38.0939 -77.8319 215° Southwest 375 432 22,000  Level Washington Center
Sun 03:54:24 PM 38.0072 -77.9031 213° Southwest 381 438 22,000  Level Washington Center
Sun 03:55:24 PM 37.9267 -77.9689 213° Southwest 371 427 22,000  Level Washington Center
Sun 03:56:24 PM 37.8481 -78.0375 215° Southwest 359 413 22,000  Level Washington Center
Sun 03:57:25 PM 37.7672 -78.1058 214° Southwest 354 407 22,000  Level Washington Center
Sun 03:58:26 PM 37.6781 -78.1842 215° Southwest 360 414 22,000  Level Washington Center
Sun 03:59:24 PM 37.5908 -78.2572 214° Southwest 365 420 22,000  Level Washington Center
Sun 04:00:25 PM 37.5122 -78.3225 213° Southwest 370 426 22,000  Level Washington Center
Sun 04:01:26 PM 37.4272 -78.3928 213° Southwest 370 426 22,000  Level Washington Center
Sun 04:02:24 PM 37.3422 -78.4628 213° Southwest 375 432 22,000  Level Washington Center
Sun 04:03:25 PM 37.2592 -78.5328 214° Southwest 370 426 22,000  Level Washington Center
Sun 04:04:24 PM 37.1847 -78.5925 213° Southwest 349 402 22,000 -100 Level Washington Center
Sun 04:05:25 PM 37.1122 -78.6547 214° Southwest 309 356 21,800 -1,082 Descending Washington Center
Sun 04:06:26 PM 37.0397 -78.7117 212° Southwest 304 350 19,800 -1,866 Descending Washington Center
Sun 04:07:24 PM 36.9692 -78.7711 214° Southwest 309 356 18,100 -908 Descending Washington Center
Sun 04:08:25 PM 36.9053 -78.8231 213° Southwest 304 350 18,000 -49 Descending Washington Center
Sun 04:09:26 PM 36.8392 -78.8775 213° Southwest 299 344 18,000  Level Washington Center
Sun 04:10:26 PM 36.7772 -78.9319 215° Southwest 299 344 18,000 -864 Level Washington Center
Sun 04:11:24 PM 36.7067 -78.9883 213° Southwest 304 350 16,300 -1,765 Descending Washington Center
Sun 04:12:25 PM 36.6392 -79.0167 199° South 267 307 14,500 -2,155 Descending Washington Center
Sun 04:13:07 PM 36.5731 -78.9903 162° South 286 329 12,600 -2,000 Descending Washington Center
Sun 04:13:25 PM 36.5608 -78.9847 160° South 267 307 12,500 -1,701 Descending Washington Center
Sun 04:14:14 PM 36.4842 -78.9606 166° South 288 331 10,700 -1,442 Descending Washington Center
Sun 04:15:09 PM 36.4200 -78.9425 167° South 278 320 10,000 -507 Descending Washington Center
Sun 04:15:25 PM 36.4097 -78.9419 178° South 280 322 10,100  Climbing Washington Center
Sun 04:16:16 PM 36.3372 -78.9208 167° South 264 304 10,000 -50 Descending Washington Center
Sun 04:17:26 PM 36.2647 -78.8972 165° South 269 310 10,000 -259 Level Washington Center
Sun 04:18:12 PM 36.1986 -78.8789 167° South 268 308 9,500 -1,075 Descending Washington Center
Sun 04:19:12 PM 36.1281 -78.8606 168° South 264 304 8,100 -783 Descending Washington Center
Sun 04:20:07 PM 36.0658 -78.8450 169° South 240 276 8,000 -82 Descending Washington Center
Sun 04:20:25 PM 36.0578 -78.8422 164° South 257 296 8,000  Level Washington Center
Sun 04:21:08 PM 36.0056 -78.8425 180° South 213 245 8,000  Level Washington Center
Sun 04:21:26 PM 35.9950 -78.8422 179° South 237 273 8,000 -1,000 Level Washington Center
Sun 04:22:20 PM 35.9419 -78.8783 209° Southwest 218 251 6,800 -1,101 Descending Washington Center
Sun 04:23:15 PM 35.8992 -78.9203 218° Southwest 215 247 6,000 -621 Descending Washington Center
Sun 04:24:16 PM 35.8581 -78.9725 226° Southwest 208 239 5,600 -902 Descending Washington Center
Sun 04:25:28 PM 35.8147 -79.0269 226° Southwest 177 204 4,000 -844 Descending Washington Center
Sun 04:26:24 PM 35.7797 -79.0125 161° South 164 189 3,800 -488 Descending Washington Center
Sun 04:27:31 PM 35.7625 -78.9581 111° Southeast 185 213 3,000 -541 Descending Washington Center
Sun 04:28:37 PM 35.7975 -78.8981 54° Northeast 207 238 2,600 -364 Descending Washington Center

Login

Don't have an account? Register now (free) for customized features, flight alerts, and more!